Stanley, NC (28164)

05:44 PM EDT del 26 Luglio 2016 (GMT -0400)
Brookside ES | | Change Station

Alt. 758 ft 35.29 °N, 81.15 °W | Updated 4 minutes ago

Clear
Sereno
95.3 °F
Sembra 109 °F
N
3.0
Vento Variabile Vento da ENE
Gusts 4.0 mph

Oggi
Massima -- | Minima -- °F
--% Possibilità di precip.
Ieri
Massima -- | Minima -- °F
Precip. -- in
Pressione 29.97 in
Visibilità 10.0 miglia
Nuvole Sereno
Indice di calore 109 °F
Punto di rugiada 76 °F
Umidità 54%
Piovosità 0.00 in
Spessore del manto nevoso Non disponibile.
6:28 AM 8:32 PM
Gobba a levante, 51% visible
METAR KIPJ 262120Z AUTO 24006KT 10SM CLR 34/20 A2997 RMK AO2 T03400201
Pressione 29.97 in
Visibilità 10.0 miglia
Nuvole Sereno
Indice di calore 109 °F
Punto di rugiada 76 °F
Umidità 54%
Piovosità 0.00 in
Spessore del manto nevoso Non disponibile.
6:28 AM 8:32 PM
Gobba a levante, 51% visible
METAR KIPJ 262120Z AUTO 24006KT 10SM CLR 34/20 A2997 RMK AO2 T03400201

10-Day Weather Forecast

Almanac

Astronomia

Jul. 26, 2016 Alba Tramonto
Ora attuale
Crepuscolo civile
Crepuscolo nautico
Crepuscolo astronomico
Luna
Estensione della luce visibile
Lunghezza del giorno
Tomorrow will be .
, % of the Moon is Illuminated

Gli estremi di oggi

State Highs State Lows

Community

WunderPhotos

Upload Photos

1,927,702 foto caricate!

WunderBlog® & News

Nearby

Qualità dell'aria

  Qualità dell'aria Indice AQ Inquinante
Not available.

Profondità neve

Stazione Profondità Altitudine

Attività sismica

Città  Distanza Mag. Data & Ora
Minimo Magnitudo Mostrato è 2.5.

Temperature delle acque costiere

Località Temperatura

Stations

Stazioni meteo nelle vicinanze

Ubicazione della stazione Temp. Raffreddamento del vento Punto di rugiada Umidità Vento Precip. Alt. Aggiornato Tipo
                   

Watches & Warnings

There are currently no watches in effect.